Longkou, China
Current Conditions -  °F | °C
As of 1:00 PM on Thursday 18 Dec 2014 (Local Time) from ZSQD Reporting Station
Clear Clear  
Wind Chill: 42°   Ceiling: Unl
Heat Index: 46°   Visibility: 6mi
Dew Point: 19°   Wind: 9mph
Humidity: 34%   Direction: 200°SSW
Pressure: 30.45"   Gusts: NA
Location:  37.65°N, 120.33°E
Report Text: ZSQD 180500Z 20004MPS 170V250 CAVOK 08/M07 Q1031 NOSIG
Loading
Personal Weather Stations






























Interactive Weather Map New forecast layout! Learn more

10-Day Weather Forecast

Advertisements
Track Severe Weather on mobile